sensor_id;sensor_type;location;lat;lon;timestamp;pressure;altitude;pressure_sealevel;temperature;humidity
26563;BME280;14217;50.986;5.826;2023-02-02T00:04:33;101605.13;;;17.43;43.57
26563;BME280;14217;50.986;5.826;2023-02-02T00:09:35;101613.06;;;17.43;43.56
26563;BME280;14217;50.986;5.826;2023-02-02T00:14:37;101607.75;;;17.43;43.83
26563;BME280;14217;50.986;5.826;2023-02-02T00:19:39;101614.06;;;17.39;43.77
26563;BME280;14217;50.986;5.826;2023-02-02T00:24:41;101603.56;;;17.36;43.61
26563;BME280;14217;50.986;5.826;2023-02-02T00:29:43;101600.75;;;17.42;43.66
26563;BME280;14217;50.986;5.826;2023-02-02T00:34:46;101596.22;;;17.45;43.69
26563;BME280;14217;50.986;5.826;2023-02-02T00:39:48;101597.16;;;17.43;43.59
26563;BME280;14217;50.986;5.826;2023-02-02T00:44:50;101600.75;;;17.42;43.39
26563;BME280;14217;50.986;5.826;2023-02-02T00:50:13;101603.38;;;17.43;43.68
26563;BME280;14217;50.986;5.826;2023-02-02T00:55:16;101601.56;;;17.44;43.43
26563;BME280;14217;50.986;5.826;2023-02-02T01:00:23;101599.75;;;17.46;43.27
26563;BME280;14217;50.986;5.826;2023-02-02T01:05:26;101610.41;;;17.43;43.36
26563;BME280;14217;50.986;5.826;2023-02-02T01:10:28;101611.34;;;17.42;43.64
26563;BME280;14217;50.986;5.826;2023-02-02T01:15:30;101597.31;;;17.38;43.54
26563;BME280;14217;50.986;5.826;2023-02-02T01:20:32;101594.63;;;17.40;43.52
26563;BME280;14217;50.986;5.826;2023-02-02T01:25:34;101607.03;;;17.38;43.70
26563;BME280;14217;50.986;5.826;2023-02-02T01:30:39;101608.66;;;17.43;43.35
26563;BME280;14217;50.986;5.826;2023-02-02T01:35:52;101615.69;;;17.44;43.37
26563;BME280;14217;50.986;5.826;2023-02-02T01:40:55;101614.00;;;17.42;43.36
26563;BME280;14217;50.986;5.826;2023-02-02T01:45:57;101614.88;;;17.41;43.46
26563;BME280;14217;50.986;5.826;2023-02-02T01:51:07;101621.91;;;17.43;43.18
26563;BME280;14217;50.986;5.826;2023-02-02T01:56:12;101620.13;;;17.44;43.18
26563;BME280;14217;50.986;5.826;2023-02-02T02:01:16;101621.09;;;17.41;43.36
26563;BME280;14217;50.986;5.826;2023-02-02T02:06:18;101615.66;;;17.46;43.25
26563;BME280;14217;50.986;5.826;2023-02-02T02:11:21;101606.91;;;17.42;43.28
26563;BME280;14217;50.986;5.826;2023-02-02T02:22:17;101599.88;;;17.41;43.15
26563;BME280;14217;50.986;5.826;2023-02-02T02:33:40;101601.59;;;17.42;43.29
26563;BME280;14217;50.986;5.826;2023-02-02T02:38:53;101601.56;;;17.44;43.27
26563;BME280;14217;50.986;5.826;2023-02-02T02:44:05;101602.47;;;17.43;43.48
26563;BME280;14217;50.986;5.826;2023-02-02T02:49:10;101599.91;;;17.40;43.35
26563;BME280;14217;50.986;5.826;2023-02-02T02:59:50;101610.53;;;17.38;43.48
26563;BME280;14217;50.986;5.826;2023-02-02T03:05:09;101617.41;;;17.45;43.28
26563;BME280;14217;50.986;5.826;2023-02-02T03:10:17;101619.25;;;17.43;43.08
26563;BME280;14217;50.986;5.826;2023-02-02T03:15:20;101621.84;;;17.45;43.08
26563;BME280;14217;50.986;5.826;2023-02-02T03:20:23;101617.50;;;17.42;43.24
26563;BME280;14217;50.986;5.826;2023-02-02T03:25:25;101621.09;;;17.41;43.12
26563;BME280;14217;50.986;5.826;2023-02-02T03:30:27;101616.63;;;17.42;43.13
26563;BME280;14217;50.986;5.826;2023-02-02T03:35:29;101621.00;;;17.43;43.32
26563;BME280;14217;50.986;5.826;2023-02-02T03:40:31;101617.50;;;17.42;43.38
26563;BME280;14217;50.986;5.826;2023-02-02T03:45:33;101627.28;;;17.40;43.43
26563;BME280;14217;50.986;5.826;2023-02-02T03:50:41;101623.66;;;17.43;43.11
26563;BME280;14217;50.986;5.826;2023-02-02T03:55:43;101624.63;;;17.40;43.09
26563;BME280;14217;50.986;5.826;2023-02-02T04:00:45;101622.69;;;17.45;43.05
26563;BME280;14217;50.986;5.826;2023-02-02T04:05:50;101636.06;;;17.42;43.17
26563;BME280;14217;50.986;5.826;2023-02-02T04:10:52;101643.00;;;17.46;43.10
26563;BME280;14217;50.986;5.826;2023-02-02T04:15:58;101637.75;;;17.45;43.04
26563;BME280;14217;50.986;5.826;2023-02-02T04:21:01;101619.19;;;17.45;43.28
26563;BME280;14217;50.986;5.826;2023-02-02T04:26:03;101635.16;;;17.43;43.11
26563;BME280;14217;50.986;5.826;2023-02-02T04:31:05;101641.31;;;17.44;42.96
26563;BME280;14217;50.986;5.826;2023-02-02T04:36:07;101648.44;;;17.42;43.27
26563;BME280;14217;50.986;5.826;2023-02-02T04:41:10;101655.38;;;17.46;42.90
26563;BME280;14217;50.986;5.826;2023-02-02T04:46:15;101658.94;;;17.45;42.97
26563;BME280;14217;50.986;5.826;2023-02-02T04:51:17;101658.94;;;17.45;43.28
26563;BME280;14217;50.986;5.826;2023-02-02T04:56:19;101662.50;;;17.44;43.15
26563;BME280;14217;50.986;5.826;2023-02-02T05:01:22;101680.13;;;17.45;43.35
26563;BME280;14217;50.986;5.826;2023-02-02T05:06:24;101677.44;;;17.46;43.02
26563;BME280;14217;50.986;5.826;2023-02-02T05:11:26;101680.13;;;17.45;43.24
26563;BME280;14217;50.986;5.826;2023-02-02T05:16:28;101671.44;;;17.40;43.34
26563;BME280;14217;50.986;5.826;2023-02-02T05:21:30;101669.59;;;17.43;43.32
26563;BME280;14217;50.986;5.826;2023-02-02T05:26:32;101666.97;;;17.42;43.19
26563;BME280;14217;50.986;5.826;2023-02-02T05:31:34;101656.25;;;17.46;43.25
26563;BME280;14217;50.986;5.826;2023-02-02T05:36:36;101651.94;;;17.42;43.00
26563;BME280;14217;50.986;5.826;2023-02-02T05:41:38;101655.38;;;17.46;43.25
26563;BME280;14217;50.986;5.826;2023-02-02T05:46:40;101665.75;;;17.54;44.11
26563;BME280;14217;50.986;5.826;2023-02-02T05:51:46;101667.88;;;17.41;44.23
26563;BME280;14217;50.986;5.826;2023-02-02T05:56:51;101667.97;;;17.38;45.05
26563;BME280;14217;50.986;5.826;2023-02-02T06:01:53;101662.66;;;17.38;44.77
26563;BME280;14217;50.986;5.826;2023-02-02T06:06:56;101666.16;;;17.40;44.45
26563;BME280;14217;50.986;5.826;2023-02-02T06:11:58;101670.63;;;17.38;44.52
26563;BME280;14217;50.986;5.826;2023-02-02T06:16:59;101677.72;;;17.37;43.99
26563;BME280;14217;50.986;5.826;2023-02-02T06:22:02;101683.03;;;17.36;43.97
26563;BME280;14217;50.986;5.826;2023-02-02T06:27:04;101682.19;;;17.34;43.97
26563;BME280;14217;50.986;5.826;2023-02-02T06:32:06;101682.19;;;17.34;44.02
26563;BME280;14217;50.986;5.826;2023-02-02T06:37:08;101697.06;;;17.39;43.71
26563;BME280;14217;50.986;5.826;2023-02-02T06:42:10;101696.28;;;17.36;43.76
26563;BME280;14217;50.986;5.826;2023-02-02T06:47:22;101709.53;;;17.36;43.97
26563;BME280;14217;50.986;5.826;2023-02-02T06:52:27;101700.56;;;17.41;43.68
26563;BME280;14217;50.986;5.826;2023-02-02T06:57:28;101704.13;;;17.39;43.58
26563;BME280;14217;50.986;5.826;2023-02-02T07:02:31;101700.63;;;17.38;43.56
26563;BME280;14217;50.986;5.826;2023-02-02T07:07:33;101697.97;;;17.38;43.71
26563;BME280;14217;50.986;5.826;2023-02-02T07:12:35;101699.81;;;17.35;43.79
26563;BME280;14217;50.986;5.826;2023-02-02T07:17:37;101716.47;;;17.40;43.46
26563;BME280;14217;50.986;5.826;2023-02-02T07:22:40;101718.31;;;17.38;43.59
26563;BME280;14217;50.986;5.826;2023-02-02T07:27:42;101724.59;;;17.34;43.86
26563;BME280;14217;50.986;5.826;2023-02-02T07:32:48;101722.78;;;17.36;43.86
26563;BME280;14217;50.986;5.826;2023-02-02T07:37:51;101727.97;;;17.39;44.07
26563;BME280;14217;50.986;5.826;2023-02-02T07:42:54;101727.22;;;17.35;44.07
26563;BME280;14217;50.986;5.826;2023-02-02T07:47:58;101726.25;;;17.38;44.08
26563;BME280;14217;50.986;5.826;2023-02-02T07:53:00;101722.78;;;17.36;44.86
26563;BME280;14217;50.986;5.826;2023-02-02T07:58:02;101721.81;;;17.38;44.64
26563;BME280;14217;50.986;5.826;2023-02-02T08:03:04;101722.66;;;17.40;44.29
26563;BME280;14217;50.986;5.826;2023-02-02T08:08:06;101731.44;;;17.42;44.43
26563;BME280;14217;50.986;5.826;2023-02-02T08:13:08;101741.19;;;17.40;44.06
26563;BME280;14217;50.986;5.826;2023-02-02T08:18:10;101744.66;;;17.44;44.14
26563;BME280;14217;50.986;5.826;2023-02-02T08:23:12;101744.69;;;17.41;44.16
26563;BME280;14217;50.986;5.826;2023-02-02T08:28:17;101759.75;;;17.40;44.00
26563;BME280;14217;50.986;5.826;2023-02-02T08:33:19;101764.16;;;17.41;43.82
26563;BME280;14217;50.986;5.826;2023-02-02T08:38:22;101780.06;;;17.40;43.97
26563;BME280;14217;50.986;5.826;2023-02-02T08:43:24;101781.75;;;17.42;43.83
26563;BME280;14217;50.986;5.826;2023-02-02T08:48:26;101786.09;;;17.45;43.47
26563;BME280;14217;50.986;5.826;2023-02-02T08:53:28;101789.75;;;17.41;43.45
26563;BME280;14217;50.986;5.826;2023-02-02T08:58:31;101783.59;;;17.40;43.70
26563;BME280;14217;50.986;5.826;2023-02-02T09:03:34;101796.03;;;17.37;43.65
26563;BME280;14217;50.986;5.826;2023-02-02T09:08:36;101796.84;;;17.39;43.54
26563;BME280;14217;50.986;5.826;2023-02-02T09:13:40;101807.44;;;17.39;43.72
26563;BME280;14217;50.986;5.826;2023-02-02T09:18:43;101836.59;;;17.39;43.75
26563;BME280;14217;50.986;5.826;2023-02-02T09:23:46;101834.94;;;17.35;43.52
26563;BME280;14217;50.986;5.826;2023-02-02T09:29:09;101852.50;;;17.39;44.80
26563;BME280;14217;50.986;5.826;2023-02-02T09:34:13;101855.09;;;17.42;44.74
26563;BME280;14217;50.986;5.826;2023-02-02T09:39:17;101860.34;;;17.43;44.34
26563;BME280;14217;50.986;5.826;2023-02-02T09:50:03;101875.34;;;17.44;44.38
26563;BME280;14217;50.986;5.826;2023-02-02T09:55:14;101877.03;;;17.47;44.19
26563;BME280;14217;50.986;5.826;2023-02-02T10:00:33;101882.44;;;17.42;44.37
26563;BME280;14217;50.986;5.826;2023-02-02T10:05:45;101900.16;;;17.40;43.92
26563;BME280;14217;50.986;5.826;2023-02-02T10:10:49;101901.97;;;17.38;43.88
26563;BME280;14217;50.986;5.826;2023-02-02T10:16:13;101899.34;;;17.37;44.13
26563;BME280;14217;50.986;5.826;2023-02-02T10:26:38;101918.69;;;17.40;43.90
26563;BME280;14217;50.986;5.826;2023-02-02T10:42:10;101922.22;;;17.41;43.63
26563;BME280;14217;50.986;5.826;2023-02-02T10:47:27;101925.84;;;17.37;43.79
26563;BME280;14217;50.986;5.826;2023-02-02T10:52:33;101927.50;;;17.41;43.39
26563;BME280;14217;50.986;5.826;2023-02-02T10:57:46;101919.56;;;17.41;43.48
26563;BME280;14217;50.986;5.826;2023-02-02T11:02:51;101909.94;;;17.37;43.68
26563;BME280;14217;50.986;5.826;2023-02-02T11:07:54;101920.47;;;17.40;43.36
26563;BME280;14217;50.986;5.826;2023-02-02T11:12:56;101925.75;;;17.41;43.08
26563;BME280;14217;50.986;5.826;2023-02-02T11:18:34;101926.66;;;17.39;43.45
26563;BME280;14217;50.986;5.826;2023-02-02T11:23:36;101939.03;;;17.40;43.41
26563;BME280;14217;50.986;5.826;2023-02-02T11:28:37;101930.25;;;17.38;43.32
26563;BME280;14217;50.986;5.826;2023-02-02T11:33:39;101916.97;;;17.39;43.20
26563;BME280;14217;50.986;5.826;2023-02-02T11:38:45;101927.50;;;17.41;43.16
26563;BME280;14217;50.986;5.826;2023-02-02T11:43:50;101919.56;;;17.41;42.88
26563;BME280;14217;50.986;5.826;2023-02-02T11:49:00;101923.97;;;17.42;43.11
26563;BME280;14217;50.986;5.826;2023-02-02T11:54:05;101913.41;;;17.40;43.02
26563;BME280;14217;50.986;5.826;2023-02-02T12:04:28;101897.47;;;17.42;42.82
26563;BME280;14217;50.986;5.826;2023-02-02T12:09:32;101893.13;;;17.39;43.08
26563;BME280;14217;50.986;5.826;2023-02-02T12:20:47;101880.75;;;17.40;43.03
26563;BME280;14217;50.986;5.826;2023-02-02T12:30:58;101873.66;;;17.40;42.71
26563;BME280;14217;50.986;5.826;2023-02-02T12:42:00;101883.44;;;17.37;42.93
26563;BME280;14217;50.986;5.826;2023-02-02T12:47:13;101882.41;;;17.44;42.87
26563;BME280;14217;50.986;5.826;2023-02-02T13:03:24;101853.31;;;17.42;42.77
26563;BME280;14217;50.986;5.826;2023-02-02T13:13:42;101864.75;;;17.43;42.60
26563;BME280;14217;50.986;5.826;2023-02-02T13:19:07;101867.38;;;17.44;42.58
26563;BME280;14217;50.986;5.826;2023-02-02T13:24:19;101867.38;;;17.44;42.74
26563;BME280;14217;50.986;5.826;2023-02-02T13:29:32;101875.41;;;17.41;42.85
26563;BME280;14217;50.986;5.826;2023-02-02T13:35:04;101873.63;;;17.42;42.71
26563;BME280;14217;50.986;5.826;2023-02-02T13:56:28;101855.13;;;17.39;42.63
26563;BME280;14217;50.986;5.826;2023-02-02T14:01:34;101849.78;;;17.42;42.91
26563;BME280;14217;50.986;5.826;2023-02-02T14:07:13;101855.13;;;17.39;42.62
26563;BME280;14217;50.986;5.826;2023-02-02T14:12:14;101857.72;;;17.42;42.73
26563;BME280;14217;50.986;5.826;2023-02-02T14:22:40;101860.44;;;17.39;42.76
26563;BME280;14217;50.986;5.826;2023-02-02T14:27:54;101853.31;;;17.41;42.84
26563;BME280;14217;50.986;5.826;2023-02-02T14:38:49;101848.13;;;17.38;42.93
26563;BME280;14217;50.986;5.826;2023-02-02T14:43:54;101844.50;;;17.40;42.77
26563;BME280;14217;50.986;5.826;2023-02-02T14:54:00;101871.97;;;17.38;43.01
26563;BME280;14217;50.986;5.826;2023-02-02T14:59:03;101870.16;;;17.40;42.97
26563;BME280;14217;50.986;5.826;2023-02-02T15:09:25;101891.44;;;17.35;43.57
26563;BME280;14217;50.986;5.826;2023-02-02T15:25:40;101889.59;;;17.39;45.25
26563;BME280;14217;50.986;5.826;2023-02-02T15:30:48;101892.66;;;17.59;44.98
26563;BME280;14217;50.986;5.826;2023-02-02T15:35:52;101895.97;;;17.69;45.22
26563;BME280;14217;50.986;5.826;2023-02-02T15:40:55;101894.34;;;17.62;45.75
26563;BME280;14217;50.986;5.826;2023-02-02T15:46:06;101909.97;;;17.73;45.56
26563;BME280;14217;50.986;5.826;2023-02-02T15:51:15;101915.25;;;17.74;45.21
26563;BME280;14217;50.986;5.826;2023-02-02T16:01:29;101922.03;;;17.50;45.35
26563;BME280;14217;50.986;5.826;2023-02-02T16:06:33;101936.19;;;17.47;45.05
26563;BME280;14217;50.986;5.826;2023-02-02T16:11:40;101949.38;;;17.51;44.97
26563;BME280;14217;50.986;5.826;2023-02-02T16:16:43;101941.41;;;17.52;44.47
26563;BME280;14217;50.986;5.826;2023-02-02T16:22:10;101956.38;;;17.55;44.54
26563;BME280;14217;50.986;5.826;2023-02-02T16:27:20;101958.22;;;17.50;44.56
26563;BME280;14217;50.986;5.826;2023-02-02T16:32:31;101958.16;;;17.53;43.99
26563;BME280;14217;50.986;5.826;2023-02-02T16:37:34;101967.91;;;17.52;44.26
26563;BME280;14217;50.986;5.826;2023-02-02T16:42:37;101970.56;;;17.52;44.19
26563;BME280;14217;50.986;5.826;2023-02-02T16:47:39;101971.44;;;17.51;44.07
26563;BME280;14217;50.986;5.826;2023-02-02T16:52:57;101970.59;;;17.49;43.91
26563;BME280;14217;50.986;5.826;2023-02-02T16:58:00;101982.91;;;17.52;43.65
26563;BME280;14217;50.986;5.826;2023-02-02T17:03:07;101987.31;;;17.54;43.63
26563;BME280;14217;50.986;5.826;2023-02-02T17:08:11;101993.50;;;17.53;43.38
26563;BME280;14217;50.986;5.826;2023-02-02T17:18:31;101997.00;;;17.54;43.26
26563;BME280;14217;50.986;5.826;2023-02-02T17:23:35;102000.56;;;17.53;43.48
26563;BME280;14217;50.986;5.826;2023-02-02T17:28:38;102004.09;;;17.53;43.44
26563;BME280;14217;50.986;5.826;2023-02-02T17:33:41;102012.06;;;17.52;43.39
26563;BME280;14217;50.986;5.826;2023-02-02T17:38:44;102003.25;;;17.51;43.37
26563;BME280;14217;50.986;5.826;2023-02-02T17:43:46;101999.72;;;17.52;43.10
26563;BME280;14217;50.986;5.826;2023-02-02T17:48:48;102010.25;;;17.54;43.26
26563;BME280;14217;50.986;5.826;2023-02-02T17:53:50;102021.78;;;17.53;43.33
26563;BME280;14217;50.986;5.826;2023-02-02T17:58:52;102027.94;;;17.53;43.15
26563;BME280;14217;50.986;5.826;2023-02-02T18:03:55;102024.44;;;17.53;43.23
26563;BME280;14217;50.986;5.826;2023-02-02T18:08:57;102032.41;;;17.51;43.19
26563;BME280;14217;50.986;5.826;2023-02-02T18:13:59;102031.50;;;17.52;43.09
26563;BME280;14217;50.986;5.826;2023-02-02T18:19:01;102026.22;;;17.51;42.98
26563;BME280;14217;50.986;5.826;2023-02-02T18:24:05;102022.63;;;17.55;42.78
26563;BME280;14217;50.986;5.826;2023-02-02T18:29:07;102025.31;;;17.52;43.22
26563;BME280;14217;50.986;5.826;2023-02-02T18:34:09;102038.50;;;17.55;43.37
26563;BME280;14217;50.986;5.826;2023-02-02T18:39:11;102026.22;;;17.52;43.46
26563;BME280;14217;50.986;5.826;2023-02-02T18:44:13;102029.63;;;17.57;43.24
26563;BME280;14217;50.986;5.826;2023-02-02T18:49:15;102022.66;;;17.52;43.34
26563;BME280;14217;50.986;5.826;2023-02-02T18:54:17;102021.69;;;17.56;42.92
26563;BME280;14217;50.986;5.826;2023-02-02T18:59:19;102015.63;;;17.51;43.23
26563;BME280;14217;50.986;5.826;2023-02-02T19:04:21;102008.56;;;17.51;43.13
26563;BME280;14217;50.986;5.826;2023-02-02T19:09:23;102024.44;;;17.51;43.04
26563;BME280;14217;50.986;5.826;2023-02-02T19:14:33;102031.50;;;17.52;42.99
26563;BME280;14217;50.986;5.826;2023-02-02T19:19:37;102027.97;;;17.52;42.84
26563;BME280;14217;50.986;5.826;2023-02-02T19:24:40;102026.16;;;17.54;42.91
26563;BME280;14217;50.986;5.826;2023-02-02T19:29:44;102027.13;;;17.50;43.08
26563;BME280;14217;50.986;5.826;2023-02-02T19:34:47;102027.09;;;17.51;42.93
26563;BME280;14217;50.986;5.826;2023-02-02T19:39:52;102033.25;;;17.53;42.77
26563;BME280;14217;50.986;5.826;2023-02-02T19:44:55;102034.19;;;17.51;42.88
26563;BME280;14217;50.986;5.826;2023-02-02T19:49:58;102039.47;;;17.52;42.89
26563;BME280;14217;50.986;5.826;2023-02-02T19:55:20;102045.63;;;17.53;42.77
26563;BME280;14217;50.986;5.826;2023-02-02T20:00:25;102035.06;;;17.50;42.91
26563;BME280;14217;50.986;5.826;2023-02-02T20:05:41;102033.34;;;17.48;42.75
26563;BME280;14217;50.986;5.826;2023-02-02T20:10:47;102019.09;;;17.54;42.73
26563;BME280;14217;50.986;5.826;2023-02-02T20:15:53;102025.28;;;17.53;42.65
26563;BME280;14217;50.986;5.826;2023-02-02T20:21:07;102012.97;;;17.51;42.66
26563;BME280;14217;50.986;5.826;2023-02-02T20:31:22;102021.78;;;17.53;42.63
26563;BME280;14217;50.986;5.826;2023-02-02T20:36:26;102012.03;;;17.53;42.76
26563;BME280;14217;50.986;5.826;2023-02-02T20:41:28;102024.41;;;17.54;42.50
26563;BME280;14217;50.986;5.826;2023-02-02T20:46:30;102012.13;;;17.50;42.52
26563;BME280;14217;50.986;5.826;2023-02-02T20:51:32;102009.50;;;17.47;42.59
26563;BME280;14217;50.986;5.826;2023-02-02T20:56:34;102010.31;;;17.52;42.79
26563;BME280;14217;50.986;5.826;2023-02-02T21:01:37;102017.38;;;17.52;42.50
26563;BME280;14217;50.986;5.826;2023-02-02T21:06:39;102018.19;;;17.54;42.71
26563;BME280;14217;50.986;5.826;2023-02-02T21:11:41;102030.63;;;17.52;42.42
26563;BME280;14217;50.986;5.826;2023-02-02T21:16:43;102020.00;;;17.53;42.44
26563;BME280;14217;50.986;5.826;2023-02-02T21:21:45;102051.75;;;17.55;42.52
26563;BME280;14217;50.986;5.826;2023-02-02T21:26:47;102065.03;;;17.53;42.40
26563;BME280;14217;50.986;5.826;2023-02-02T21:31:52;102073.91;;;17.52;42.44
26563;BME280;14217;50.986;5.826;2023-02-02T21:36:59;102082.75;;;17.51;42.51
26563;BME280;14217;50.986;5.826;2023-02-02T21:47:31;102068.41;;;17.61;42.82
26563;BME280;14217;50.986;5.826;2023-02-02T21:52:34;102053.25;;;17.66;43.89
26563;BME280;14217;50.986;5.826;2023-02-02T21:57:36;102057.06;;;17.55;43.67
26563;BME280;14217;50.986;5.826;2023-02-02T22:02:39;102069.47;;;17.53;43.79
26563;BME280;14217;50.986;5.826;2023-02-02T22:07:48;102066.00;;;17.49;43.57
26563;BME280;14217;50.986;5.826;2023-02-02T22:12:50;102066.00;;;17.49;43.74
26563;BME280;14217;50.986;5.826;2023-02-02T22:17:52;102060.66;;;17.52;43.74
26563;BME280;14217;50.986;5.826;2023-02-02T22:22:54;102057.13;;;17.52;43.86
26563;BME280;14217;50.986;5.826;2023-02-02T22:27:57;102056.28;;;17.50;43.84
26563;BME280;14217;50.986;5.826;2023-02-02T22:33:06;102050.09;;;17.49;43.77
26563;BME280;14217;50.986;5.826;2023-02-02T22:38:10;102052.72;;;17.52;43.67
26563;BME280;14217;50.986;5.826;2023-02-02T22:43:17;102065.91;;;17.54;43.63
26563;BME280;14217;50.986;5.826;2023-02-02T22:48:19;102063.22;;;17.57;43.22
26563;BME280;14217;50.986;5.826;2023-02-02T22:53:21;102064.16;;;17.54;43.58
26563;BME280;14217;50.986;5.826;2023-02-02T22:58:24;102064.09;;;17.56;43.59
26563;BME280;14217;50.986;5.826;2023-02-02T23:03:26;102072.97;;;17.55;43.40
26563;BME280;14217;50.986;5.826;2023-02-02T23:08:28;102063.31;;;17.52;43.61
26563;BME280;14217;50.986;5.826;2023-02-02T23:13:30;102058.78;;;17.57;43.25
26563;BME280;14217;50.986;5.826;2023-02-02T23:18:32;102061.50;;;17.54;43.63
26563;BME280;14217;50.986;5.826;2023-02-02T23:23:34;102058.88;;;17.53;43.40
26563;BME280;14217;50.986;5.826;2023-02-02T23:28:36;102063.34;;;17.49;43.67
26563;BME280;14217;50.986;5.826;2023-02-02T23:33:38;102067.66;;;17.56;43.23
26563;BME280;14217;50.986;5.826;2023-02-02T23:38:40;102057.16;;;17.50;43.64
26563;BME280;14217;50.986;5.826;2023-02-02T23:43:43;102047.41;;;17.52;43.30
26563;BME280;14217;50.986;5.826;2023-02-02T23:48:45;102028.84;;;17.52;43.53
26563;BME280;14217;50.986;5.826;2023-02-02T23:53:48;102017.34;;;17.53;43.47
26563;BME280;14217;50.986;5.826;2023-02-02T23:58:50;102012.13;;;17.50;43.60
